sensor_id;sensor_type;location;lat;lon;timestamp;pressure;altitude;pressure_sealevel;temperature;humidity
14800;BME280;7491;57.750;11.970;2023-08-17T00:01:59;75745.81;;;-142.11;100.00
14800;BME280;7491;57.750;11.970;2023-08-17T00:04:26;75741.72;;;-142.11;100.00
14800;BME280;7491;57.750;11.970;2023-08-17T00:06:53;75743.75;;;-142.11;100.00
14800;BME280;7491;57.750;11.970;2023-08-17T00:09:20;75737.66;;;-142.11;100.00
14800;BME280;7491;57.750;11.970;2023-08-17T00:11:47;75743.75;;;-142.11;100.00
14800;BME280;7491;57.750;11.970;2023-08-17T00:14:15;75741.72;;;-142.11;100.00
14800;BME280;7491;57.750;11.970;2023-08-17T00:16:42;75731.53;;;-142.11;100.00
14800;BME280;7491;57.750;11.970;2023-08-17T00:19:09;75717.25;;;-142.11;100.00
14800;BME280;7491;57.750;11.970;2023-08-17T00:21:36;75723.38;;;-142.11;100.00
14800;BME280;7491;57.750;11.970;2023-08-17T00:24:04;75715.22;;;-142.11;100.00
14800;BME280;7491;57.750;11.970;2023-08-17T00:26:31;75721.34;;;-142.11;100.00
14800;BME280;7491;57.750;11.970;2023-08-17T00:28:58;75711.16;;;-142.11;100.00
14800;BME280;7491;57.750;11.970;2023-08-17T00:31:27;75719.31;;;-142.11;100.00
14800;BME280;7491;57.750;11.970;2023-08-17T00:33:54;75751.91;;;-142.11;100.00
14800;BME280;7491;57.750;11.970;2023-08-17T00:36:21;75729.50;;;-142.11;100.00
14800;BME280;7491;57.750;11.970;2023-08-17T00:38:48;75741.72;;;-142.11;100.00
14800;BME280;7491;57.750;11.970;2023-08-17T00:41:15;75749.88;;;-142.11;100.00
14800;BME280;7491;57.750;11.970;2023-08-17T00:43:42;75751.91;;;-142.11;100.00
14800;BME280;7491;57.750;11.970;2023-08-17T00:46:09;75778.41;;;-142.11;100.00
14800;BME280;7491;57.750;11.970;2023-08-17T00:48:38;75778.41;;;-142.11;100.00
14800;BME280;7491;57.750;11.970;2023-08-17T00:51:05;75782.50;;;-142.11;100.00
14800;BME280;7491;57.750;11.970;2023-08-17T00:53:32;75794.72;;;-142.11;100.00
14800;BME280;7491;57.750;11.970;2023-08-17T00:56:01;75794.72;;;-142.11;100.00
14800;BME280;7491;57.750;11.970;2023-08-17T00:58:29;75806.94;;;-142.11;100.00
14800;BME280;7491;57.750;11.970;2023-08-17T01:00:56;75819.19;;;-142.11;100.00
14800;BME280;7491;57.750;11.970;2023-08-17T01:03:24;75804.91;;;-142.11;100.00
14800;BME280;7491;57.750;11.970;2023-08-17T01:05:56;75815.09;;;-142.11;100.00
14800;BME280;7491;57.750;11.970;2023-08-17T01:08:23;75817.13;;;-142.11;100.00
14800;BME280;7491;57.750;11.970;2023-08-17T01:10:55;75823.25;;;-142.11;100.00
14800;BME280;7491;57.750;11.970;2023-08-17T01:13:30;75821.22;;;-142.11;100.00
14800;BME280;7491;57.750;11.970;2023-08-17T01:16:02;75821.22;;;-142.11;100.00
14800;BME280;7491;57.750;11.970;2023-08-17T01:18:33;75833.44;;;-142.11;100.00
14800;BME280;7491;57.750;11.970;2023-08-17T01:21:06;75821.22;;;-142.11;100.00
14800;BME280;7491;57.750;11.970;2023-08-17T01:23:34;75831.41;;;-142.11;100.00
14800;BME280;7491;57.750;11.970;2023-08-17T01:26:01;75829.38;;;-142.11;100.00
14800;BME280;7491;57.750;11.970;2023-08-17T01:28:29;75837.53;;;-142.11;100.00
14800;BME280;7491;57.750;11.970;2023-08-17T01:30:58;75839.56;;;-142.11;100.00
14800;BME280;7491;57.750;11.970;2023-08-17T01:33:31;75833.44;;;-142.11;100.00
14800;BME280;7491;57.750;11.970;2023-08-17T01:36:05;75837.53;;;-142.11;100.00
14800;BME280;7491;57.750;11.970;2023-08-17T01:38:35;75835.47;;;-142.11;100.00
14800;BME280;7491;57.750;11.970;2023-08-17T01:41:04;75851.78;;;-142.11;100.00
14800;BME280;7491;57.750;11.970;2023-08-17T01:43:31;75851.78;;;-142.11;100.00
14800;BME280;7491;57.750;11.970;2023-08-17T01:45:59;75876.25;;;-142.11;100.00
14800;BME280;7491;57.750;11.970;2023-08-17T01:48:27;75870.13;;;-142.11;100.00
14800;BME280;7491;57.750;11.970;2023-08-17T01:50:55;75866.06;;;-142.11;100.00
14800;BME280;7491;57.750;11.970;2023-08-17T01:53:21;75870.13;;;-142.11;100.00
14800;BME280;7491;57.750;11.970;2023-08-17T01:55:49;75868.09;;;-142.11;100.00
14800;BME280;7491;57.750;11.970;2023-08-17T01:58:16;75855.88;;;-142.11;100.00
14800;BME280;7491;57.750;11.970;2023-08-17T02:00:43;75870.13;;;-142.11;100.00
14800;BME280;7491;57.750;11.970;2023-08-17T02:03:10;75870.13;;;-142.11;100.00
14800;BME280;7491;57.750;11.970;2023-08-17T02:05:37;75878.28;;;-142.11;100.00
14800;BME280;7491;57.750;11.970;2023-08-17T02:08:05;75880.31;;;-142.11;100.00
14800;BME280;7491;57.750;11.970;2023-08-17T02:10:33;75886.44;;;-142.11;100.00
14800;BME280;7491;57.750;11.970;2023-08-17T02:13:01;75866.06;;;-142.11;100.00
14800;BME280;7491;57.750;11.970;2023-08-17T02:15:28;75851.78;;;-142.11;100.00
14800;BME280;7491;57.750;11.970;2023-08-17T02:17:56;75855.88;;;-142.11;100.00
14800;BME280;7491;57.750;11.970;2023-08-17T02:20:22;75866.06;;;-142.11;100.00
14800;BME280;7491;57.750;11.970;2023-08-17T02:22:49;75876.25;;;-142.11;100.00
14800;BME280;7491;57.750;11.970;2023-08-17T02:25:16;75866.06;;;-142.11;100.00
14800;BME280;7491;57.750;11.970;2023-08-17T02:27:43;75857.91;;;-142.11;100.00
14800;BME280;7491;57.750;11.970;2023-08-17T02:30:13;75874.22;;;-142.11;100.00
14800;BME280;7491;57.750;11.970;2023-08-17T02:32:40;75866.06;;;-142.11;100.00
14800;BME280;7491;57.750;11.970;2023-08-17T02:35:08;75882.38;;;-142.11;100.00
14800;BME280;7491;57.750;11.970;2023-08-17T02:37:34;75894.59;;;-142.11;100.00
14800;BME280;7491;57.750;11.970;2023-08-17T02:40:01;75904.78;;;-142.11;100.00
14800;BME280;7491;57.750;11.970;2023-08-17T02:42:28;75900.72;;;-142.11;100.00
14800;BME280;7491;57.750;11.970;2023-08-17T02:44:55;75898.66;;;-142.11;100.00
14800;BME280;7491;57.750;11.970;2023-08-17T02:47:23;75888.47;;;-142.11;100.00
14800;BME280;7491;57.750;11.970;2023-08-17T02:49:49;75888.47;;;-142.11;100.00
14800;BME280;7491;57.750;11.970;2023-08-17T02:52:16;75886.44;;;-142.11;100.00
14800;BME280;7491;57.750;11.970;2023-08-17T02:54:43;75876.25;;;-142.11;100.00
14800;BME280;7491;57.750;11.970;2023-08-17T02:57:11;75886.44;;;-142.11;100.00
14800;BME280;7491;57.750;11.970;2023-08-17T02:59:38;75902.75;;;-142.11;100.00
14800;BME280;7491;57.750;11.970;2023-08-17T03:02:11;75906.81;;;-142.11;100.00
14800;BME280;7491;57.750;11.970;2023-08-17T03:04:39;75910.91;;;-142.11;100.00
14800;BME280;7491;57.750;11.970;2023-08-17T03:07:08;75896.63;;;-142.11;100.00
14800;BME280;7491;57.750;11.970;2023-08-17T03:09:34;75892.56;;;-142.11;100.00
14800;BME280;7491;57.750;11.970;2023-08-17T03:12:01;75894.59;;;-142.11;100.00
14800;BME280;7491;57.750;11.970;2023-08-17T03:14:28;75917.00;;;-142.11;100.00
14800;BME280;7491;57.750;11.970;2023-08-17T03:16:55;75919.06;;;-142.11;100.00
14800;BME280;7491;57.750;11.970;2023-08-17T03:19:22;75925.16;;;-142.11;100.00
14800;BME280;7491;57.750;11.970;2023-08-17T03:21:51;75929.25;;;-142.11;100.00
14800;BME280;7491;57.750;11.970;2023-08-17T03:24:18;75927.22;;;-142.11;100.00
14800;BME280;7491;57.750;11.970;2023-08-17T03:26:44;75914.97;;;-142.11;100.00
14800;BME280;7491;57.750;11.970;2023-08-17T03:29:11;75927.22;;;-142.11;100.00
14800;BME280;7491;57.750;11.970;2023-08-17T03:31:38;75937.41;;;-142.11;100.00
14800;BME280;7491;57.750;11.970;2023-08-17T03:34:05;75953.72;;;-142.11;100.00
14800;BME280;7491;57.750;11.970;2023-08-17T03:36:32;75957.78;;;-142.11;100.00
14800;BME280;7491;57.750;11.970;2023-08-17T03:39:01;75953.72;;;-142.11;100.00
14800;BME280;7491;57.750;11.970;2023-08-17T03:41:27;75953.72;;;-142.11;100.00
14800;BME280;7491;57.750;11.970;2023-08-17T03:43:58;75965.94;;;-142.11;100.00
14800;BME280;7491;57.750;11.970;2023-08-17T03:46:24;75955.75;;;-142.11;100.00
14800;BME280;7491;57.750;11.970;2023-08-17T03:48:51;75957.78;;;-142.11;100.00
14800;BME280;7491;57.750;11.970;2023-08-17T03:51:18;75953.72;;;-142.11;100.00
14800;BME280;7491;57.750;11.970;2023-08-17T03:53:45;75947.59;;;-142.11;100.00
14800;BME280;7491;57.750;11.970;2023-08-17T03:56:13;75939.44;;;-142.11;100.00
14800;BME280;7491;57.750;11.970;2023-08-17T03:58:41;75939.44;;;-142.11;100.00
14800;BME280;7491;57.750;11.970;2023-08-17T04:01:09;75955.75;;;-142.11;100.00
14800;BME280;7491;57.750;11.970;2023-08-17T04:03:36;75947.59;;;-142.11;100.00
14800;BME280;7491;57.750;11.970;2023-08-17T04:06:06;75951.66;;;-142.11;100.00
14800;BME280;7491;57.750;11.970;2023-08-17T04:08:35;75949.63;;;-142.11;100.00
14800;BME280;7491;57.750;11.970;2023-08-17T04:11:02;75957.78;;;-142.11;100.00
14800;BME280;7491;57.750;11.970;2023-08-17T04:13:31;75947.59;;;-142.11;100.00
14800;BME280;7491;57.750;11.970;2023-08-17T04:15:58;75947.59;;;-142.11;100.00
14800;BME280;7491;57.750;11.970;2023-08-17T04:18:24;75974.09;;;-142.11;100.00
14800;BME280;7491;57.750;11.970;2023-08-17T04:20:51;75967.97;;;-142.11;100.00
14800;BME280;7491;57.750;11.970;2023-08-17T04:23:18;75963.91;;;-142.11;100.00
14800;BME280;7491;57.750;11.970;2023-08-17T04:25:46;75980.22;;;-142.11;100.00
14800;BME280;7491;57.750;11.970;2023-08-17T04:28:13;75972.06;;;-142.11;100.00
14800;BME280;7491;57.750;11.970;2023-08-17T04:30:42;75982.25;;;-142.11;100.00
14800;BME280;7491;57.750;11.970;2023-08-17T04:33:09;76004.66;;;-142.11;100.00
14800;BME280;7491;57.750;11.970;2023-08-17T04:35:36;76004.66;;;-142.11;100.00
14800;BME280;7491;57.750;11.970;2023-08-17T04:38:03;75984.28;;;-142.11;100.00
14800;BME280;7491;57.750;11.970;2023-08-17T04:40:30;75986.31;;;-142.11;100.00
14800;BME280;7491;57.750;11.970;2023-08-17T04:42:57;75984.28;;;-142.11;100.00
14800;BME280;7491;57.750;11.970;2023-08-17T04:45:24;75951.66;;;-142.11;100.00
14800;BME280;7491;57.750;11.970;2023-08-17T04:47:52;75949.63;;;-142.11;100.00
14800;BME280;7491;57.750;11.970;2023-08-17T04:50:19;75945.56;;;-142.11;100.00
14800;BME280;7491;57.750;11.970;2023-08-17T04:52:46;75939.44;;;-142.11;100.00
14800;BME280;7491;57.750;11.970;2023-08-17T04:55:14;75947.59;;;-142.11;100.00
14800;BME280;7491;57.750;11.970;2023-08-17T04:57:40;75947.59;;;-142.11;100.00
14800;BME280;7491;57.750;11.970;2023-08-17T05:00:08;75945.56;;;-142.11;100.00
14800;BME280;7491;57.750;11.970;2023-08-17T05:02:35;75941.47;;;-142.11;100.00
14800;BME280;7491;57.750;11.970;2023-08-17T05:05:05;75965.94;;;-142.11;100.00
14800;BME280;7491;57.750;11.970;2023-08-17T05:07:34;75986.31;;;-142.11;100.00
14800;BME280;7491;57.750;11.970;2023-08-17T05:10:01;75965.94;;;-142.11;100.00
14800;BME280;7491;57.750;11.970;2023-08-17T05:12:28;75978.16;;;-142.11;100.00
14800;BME280;7491;57.750;11.970;2023-08-17T05:14:55;75963.91;;;-142.11;100.00
14800;BME280;7491;57.750;11.970;2023-08-17T05:17:22;75961.88;;;-142.11;100.00
14800;BME280;7491;57.750;11.970;2023-08-17T05:19:49;75953.72;;;-142.11;100.00
14800;BME280;7491;57.750;11.970;2023-08-17T05:22:18;75955.75;;;-142.11;100.00
14800;BME280;7491;57.750;11.970;2023-08-17T05:24:45;75949.63;;;-142.11;100.00
14800;BME280;7491;57.750;11.970;2023-08-17T05:27:11;75947.59;;;-142.11;100.00
14800;BME280;7491;57.750;11.970;2023-08-17T05:29:39;75943.50;;;-142.11;100.00
14800;BME280;7491;57.750;11.970;2023-08-17T05:32:05;75933.31;;;-142.11;100.00
14800;BME280;7491;57.750;11.970;2023-08-17T05:34:32;75933.31;;;-142.11;100.00
14800;BME280;7491;57.750;11.970;2023-08-17T05:36:59;75937.41;;;-142.11;100.00
14800;BME280;7491;57.750;11.970;2023-08-17T05:39:27;75941.47;;;-142.11;100.00
14800;BME280;7491;57.750;11.970;2023-08-17T05:41:54;75937.41;;;-142.11;100.00
14800;BME280;7491;57.750;11.970;2023-08-17T05:44:21;75919.06;;;-142.11;100.00
14800;BME280;7491;57.750;11.970;2023-08-17T05:46:47;75908.88;;;-142.11;100.00
14800;BME280;7491;57.750;11.970;2023-08-17T05:49:14;75904.78;;;-142.11;100.00
14800;BME280;7491;57.750;11.970;2023-08-17T05:51:41;75886.44;;;-142.11;100.00
14800;BME280;7491;57.750;11.970;2023-08-17T05:54:08;75866.06;;;-142.11;100.00
14800;BME280;7491;57.750;11.970;2023-08-17T05:56:36;75845.69;;;-142.11;100.00
14800;BME280;7491;57.750;11.970;2023-08-17T05:59:03;75825.28;;;-142.11;100.00
14800;BME280;7491;57.750;11.970;2023-08-17T06:01:30;75835.47;;;-142.11;100.00
14800;BME280;7491;57.750;11.970;2023-08-17T06:03:57;75831.41;;;-142.11;100.00
14800;BME280;7491;57.750;11.970;2023-08-17T06:06:23;75817.13;;;-142.11;100.00
14800;BME280;7491;57.750;11.970;2023-08-17T06:08:51;75811.03;;;-142.11;100.00
14800;BME280;7491;57.750;11.970;2023-08-17T06:11:18;75804.91;;;-142.11;100.00
14800;BME280;7491;57.750;11.970;2023-08-17T06:13:46;75792.69;;;-142.11;100.00
14800;BME280;7491;57.750;11.970;2023-08-17T06:16:13;75813.06;;;-142.11;100.00
14800;BME280;7491;57.750;11.970;2023-08-17T06:18:40;75802.88;;;-142.11;100.00
14800;BME280;7491;57.750;11.970;2023-08-17T06:21:07;75800.84;;;-142.11;100.00
14800;BME280;7491;57.750;11.970;2023-08-17T06:23:33;75772.28;;;-142.11;100.00
14800;BME280;7491;57.750;11.970;2023-08-17T06:26:00;75762.09;;;-142.11;100.00
14800;BME280;7491;57.750;11.970;2023-08-17T06:28:27;75756.00;;;-142.11;100.00
14800;BME280;7491;57.750;11.970;2023-08-17T06:30:55;75764.16;;;-142.11;100.00
14800;BME280;7491;57.750;11.970;2023-08-17T06:33:22;75758.03;;;-142.11;100.00
14800;BME280;7491;57.750;11.970;2023-08-17T06:35:49;75731.53;;;-142.11;100.00
14800;BME280;7491;57.750;11.970;2023-08-17T06:38:16;75731.53;;;-142.11;100.00
14800;BME280;7491;57.750;11.970;2023-08-17T06:40:45;75756.00;;;-142.11;100.00
14800;BME280;7491;57.750;11.970;2023-08-17T06:43:12;75741.72;;;-142.11;100.00
14800;BME280;7491;57.750;11.970;2023-08-17T06:45:38;75741.72;;;-142.11;100.00
14800;BME280;7491;57.750;11.970;2023-08-17T06:48:07;75727.44;;;-142.11;100.00
14800;BME280;7491;57.750;11.970;2023-08-17T06:50:34;75743.75;;;-142.11;100.00
14800;BME280;7491;57.750;11.970;2023-08-17T06:53:04;75723.38;;;-142.11;100.00
14800;BME280;7491;57.750;11.970;2023-08-17T06:55:30;75725.41;;;-142.11;100.00
14800;BME280;7491;57.750;11.970;2023-08-17T06:57:57;75703.00;;;-142.11;100.00
14800;BME280;7491;57.750;11.970;2023-08-17T07:00:25;75688.72;;;-142.11;100.00
14800;BME280;7491;57.750;11.970;2023-08-17T07:02:54;75698.91;;;-142.11;100.00
14800;BME280;7491;57.750;11.970;2023-08-17T07:05:22;75700.97;;;-142.11;100.00
14800;BME280;7491;57.750;11.970;2023-08-17T07:07:49;75703.00;;;-142.11;100.00
14800;BME280;7491;57.750;11.970;2023-08-17T07:10:16;75684.66;;;-142.11;100.00
14800;BME280;7491;57.750;11.970;2023-08-17T07:12:43;75692.81;;;-142.11;100.00
14800;BME280;7491;57.750;11.970;2023-08-17T07:15:10;75698.91;;;-142.11;100.00
14800;BME280;7491;57.750;11.970;2023-08-17T07:17:40;75690.75;;;-142.11;100.00
14800;BME280;7491;57.750;11.970;2023-08-17T07:20:09;75682.63;;;-142.11;100.00
14800;BME280;7491;57.750;11.970;2023-08-17T07:22:38;75664.28;;;-142.11;100.00
14800;BME280;7491;57.750;11.970;2023-08-17T07:25:05;75650.00;;;-142.11;100.00
14800;BME280;7491;57.750;11.970;2023-08-17T07:27:34;75643.88;;;-142.11;100.00
14800;BME280;7491;57.750;11.970;2023-08-17T07:30:00;75635.72;;;-142.11;100.00
14800;BME280;7491;57.750;11.970;2023-08-17T07:32:27;75623.50;;;-142.11;100.00
14800;BME280;7491;57.750;11.970;2023-08-17T07:34:54;75625.53;;;-142.11;100.00
14800;BME280;7491;57.750;11.970;2023-08-17T07:37:21;75625.53;;;-142.11;100.00
14800;BME280;7491;57.750;11.970;2023-08-17T07:39:50;75627.59;;;-142.11;100.00
14800;BME280;7491;57.750;11.970;2023-08-17T07:42:16;75617.38;;;-142.11;100.00
14800;BME280;7491;57.750;11.970;2023-08-17T07:44:44;75605.16;;;-142.11;100.00
14800;BME280;7491;57.750;11.970;2023-08-17T07:47:10;75611.28;;;-142.11;100.00
14800;BME280;7491;57.750;11.970;2023-08-17T07:49:37;75609.25;;;-142.11;100.00
14800;BME280;7491;57.750;11.970;2023-08-17T07:52:04;75601.09;;;-142.11;100.00
14800;BME280;7491;57.750;11.970;2023-08-17T07:54:31;75660.19;;;-142.11;100.00
14800;BME280;7491;57.750;11.970;2023-08-17T07:57:00;75623.50;;;-142.11;100.00
14800;BME280;7491;57.750;11.970;2023-08-17T07:59:28;75629.63;;;-142.11;100.00
14800;BME280;7491;57.750;11.970;2023-08-17T08:01:55;75607.19;;;-142.11;100.00
14800;BME280;7491;57.750;11.970;2023-08-17T08:04:22;75599.03;;;-142.11;100.00
14800;BME280;7491;57.750;11.970;2023-08-17T08:06:48;75590.91;;;-142.11;100.00
14800;BME280;7491;57.750;11.970;2023-08-17T08:09:15;75603.13;;;-142.11;100.00
14800;BME280;7491;57.750;11.970;2023-08-17T08:11:42;75580.69;;;-142.11;100.00
14800;BME280;7491;57.750;11.970;2023-08-17T08:14:10;75588.84;;;-142.11;100.00
14800;BME280;7491;57.750;11.970;2023-08-17T08:16:37;75613.31;;;-142.11;100.00
14800;BME280;7491;57.750;11.970;2023-08-17T08:19:04;75617.38;;;-142.11;100.00
14800;BME280;7491;57.750;11.970;2023-08-17T08:21:31;75609.25;;;-142.11;100.00
14800;BME280;7491;57.750;11.970;2023-08-17T08:23:58;75601.09;;;-142.11;100.00
14800;BME280;7491;57.750;11.970;2023-08-17T08:26:24;75617.38;;;-142.11;100.00
14800;BME280;7491;57.750;11.970;2023-08-17T08:28:51;75617.38;;;-142.11;100.00
14800;BME280;7491;57.750;11.970;2023-08-17T08:31:19;75584.78;;;-142.11;100.00
14800;BME280;7491;57.750;11.970;2023-08-17T08:33:47;75560.31;;;-142.11;100.00
14800;BME280;7491;57.750;11.970;2023-08-17T08:36:13;75560.31;;;-142.11;100.00
14800;BME280;7491;57.750;11.970;2023-08-17T08:38:40;75566.44;;;-142.11;100.00
14800;BME280;7491;57.750;11.970;2023-08-17T08:41:08;75546.06;;;-142.11;100.00
14800;BME280;7491;57.750;11.970;2023-08-17T08:43:35;75527.72;;;-142.11;100.00
14800;BME280;7491;57.750;11.970;2023-08-17T08:46:02;75566.44;;;-142.11;100.00
14800;BME280;7491;57.750;11.970;2023-08-17T08:48:31;75562.34;;;-142.11;100.00
14800;BME280;7491;57.750;11.970;2023-08-17T08:51:00;75560.31;;;-142.11;100.00
14800;BME280;7491;57.750;11.970;2023-08-17T08:53:31;75560.31;;;-142.11;100.00
14800;BME280;7491;57.750;11.970;2023-08-17T08:55:59;75539.94;;;-142.11;100.00
14800;BME280;7491;57.750;11.970;2023-08-17T08:58:27;75560.31;;;-142.11;100.00
14800;BME280;7491;57.750;11.970;2023-08-17T09:00:57;75546.06;;;-142.11;100.00
14800;BME280;7491;57.750;11.970;2023-08-17T09:03:25;75519.56;;;-142.11;100.00
14800;BME280;7491;57.750;11.970;2023-08-17T09:05:56;75501.22;;;-142.11;100.00
14800;BME280;7491;57.750;11.970;2023-08-17T09:08:29;75513.44;;;-142.11;100.00
14800;BME280;7491;57.750;11.970;2023-08-17T09:10:56;75519.56;;;-142.11;100.00
14800;BME280;7491;57.750;11.970;2023-08-17T09:13:23;75505.28;;;-142.11;100.00
14800;BME280;7491;57.750;11.970;2023-08-17T09:15:50;75519.56;;;-142.11;100.00
14800;BME280;7491;57.750;11.970;2023-08-17T09:18:17;75509.38;;;-142.11;100.00
14800;BME280;7491;57.750;11.970;2023-08-17T09:20:46;75497.13;;;-142.11;100.00
14800;BME280;7491;57.750;11.970;2023-08-17T09:23:16;75515.47;;;-142.11;100.00
14800;BME280;7491;57.750;11.970;2023-08-17T09:25:45;75523.63;;;-142.11;100.00
14800;BME280;7491;57.750;11.970;2023-08-17T09:28:14;75525.69;;;-142.11;100.00
14800;BME280;7491;57.750;11.970;2023-08-17T09:30:54;75509.38;;;-142.11;100.00
14800;BME280;7491;57.750;11.970;2023-08-17T09:33:22;75509.38;;;-142.11;100.00
14800;BME280;7491;57.750;11.970;2023-08-17T09:35:49;75517.53;;;-142.11;100.00
14800;BME280;7491;57.750;11.970;2023-08-17T09:38:18;75523.63;;;-142.11;100.00
14800;BME280;7491;57.750;11.970;2023-08-17T09:40:45;75525.69;;;-142.11;100.00
14800;BME280;7491;57.750;11.970;2023-08-17T09:43:12;75507.34;;;-142.11;100.00
14800;BME280;7491;57.750;11.970;2023-08-17T09:45:40;75491.03;;;-142.11;100.00
14800;BME280;7491;57.750;11.970;2023-08-17T09:48:10;75511.41;;;-142.11;100.00
14800;BME280;7491;57.750;11.970;2023-08-17T09:50:36;75513.44;;;-142.11;100.00
14800;BME280;7491;57.750;11.970;2023-08-17T09:53:03;75525.69;;;-142.11;100.00
14800;BME280;7491;57.750;11.970;2023-08-17T09:55:32;75535.88;;;-142.11;100.00
14800;BME280;7491;57.750;11.970;2023-08-17T09:58:00;75507.34;;;-142.11;100.00
14800;BME280;7491;57.750;11.970;2023-08-17T10:00:27;75501.22;;;-142.11;100.00
14800;BME280;7491;57.750;11.970;2023-08-17T10:02:57;75503.25;;;-142.11;100.00
14800;BME280;7491;57.750;11.970;2023-08-17T10:05:30;75493.06;;;-142.11;100.00
14800;BME280;7491;57.750;11.970;2023-08-17T10:07:59;75474.72;;;-142.11;100.00
14800;BME280;7491;57.750;11.970;2023-08-17T10:10:27;75503.25;;;-142.11;100.00
14800;BME280;7491;57.750;11.970;2023-08-17T10:13:00;75452.31;;;-142.11;100.00
14800;BME280;7491;57.750;11.970;2023-08-17T10:15:33;75458.41;;;-142.11;100.00
14800;BME280;7491;57.750;11.970;2023-08-17T10:18:08;75464.53;;;-142.11;100.00
14800;BME280;7491;57.750;11.970;2023-08-17T10:20:37;75429.88;;;-142.11;100.00
14800;BME280;7491;57.750;11.970;2023-08-17T10:23:12;75440.06;;;-142.11;100.00
14800;BME280;7491;57.750;11.970;2023-08-17T10:25:42;75452.31;;;-142.11;100.00
14800;BME280;7491;57.750;11.970;2023-08-17T10:28:11;75442.13;;;-142.11;100.00
14800;BME280;7491;57.750;11.970;2023-08-17T10:30:40;75458.41;;;-142.11;100.00
14800;BME280;7491;57.750;11.970;2023-08-17T10:33:08;75452.31;;;-142.11;100.00
14800;BME280;7491;57.750;11.970;2023-08-17T10:35:35;75444.16;;;-142.11;100.00
14800;BME280;7491;57.750;11.970;2023-08-17T10:38:03;75425.81;;;-142.11;100.00
14800;BME280;7491;57.750;11.970;2023-08-17T10:40:35;75431.91;;;-142.11;100.00
14800;BME280;7491;57.750;11.970;2023-08-17T10:43:03;75446.19;;;-142.11;100.00
14800;BME280;7491;57.750;11.970;2023-08-17T10:45:32;75454.34;;;-142.11;100.00
14800;BME280;7491;57.750;11.970;2023-08-17T10:51:01;75423.78;;;-142.11;100.00
14800;BME280;7491;57.750;11.970;2023-08-17T10:53:34;75397.28;;;-142.11;100.00
14800;BME280;7491;57.750;11.970;2023-08-17T10:56:01;75411.53;;;-142.11;100.00
14800;BME280;7491;57.750;11.970;2023-08-17T10:58:30;75421.72;;;-142.11;100.00
14800;BME280;7491;57.750;11.970;2023-08-17T11:00:59;75429.88;;;-142.11;100.00
14800;BME280;7491;57.750;11.970;2023-08-17T11:03:26;75444.16;;;-142.11;100.00
14800;BME280;7491;57.750;11.970;2023-08-17T11:05:54;75417.66;;;-142.11;100.00
14800;BME280;7491;57.750;11.970;2023-08-17T11:08:27;75403.38;;;-142.11;100.00
14800;BME280;7491;57.750;11.970;2023-08-17T11:10:59;75403.38;;;-142.11;100.00
14800;BME280;7491;57.750;11.970;2023-08-17T11:13:27;75419.69;;;-142.11;100.00
14800;BME280;7491;57.750;11.970;2023-08-17T11:15:55;75444.16;;;-142.11;100.00
14800;BME280;7491;57.750;11.970;2023-08-17T11:18:22;75429.88;;;-142.11;100.00
14800;BME280;7491;57.750;11.970;2023-08-17T11:20:49;75389.13;;;-142.11;100.00
14800;BME280;7491;57.750;11.970;2023-08-17T11:23:17;75358.56;;;-142.11;100.00
14800;BME280;7491;57.750;11.970;2023-08-17T11:25:45;75372.81;;;-142.11;100.00
14800;BME280;7491;57.750;11.970;2023-08-17T11:28:13;75352.44;;;-142.11;100.00
14800;BME280;7491;57.750;11.970;2023-08-17T11:30:40;75340.22;;;-142.11;100.00
14800;BME280;7491;57.750;11.970;2023-08-17T11:33:09;75325.94;;;-142.11;100.00
14800;BME280;7491;57.750;11.970;2023-08-17T11:35:37;75338.16;;;-142.11;100.00
14800;BME280;7491;57.750;11.970;2023-08-17T11:38:05;75348.38;;;-142.11;100.00
14800;BME280;7491;57.750;11.970;2023-08-17T11:40:32;75336.13;;;-142.11;100.00
14800;BME280;7491;57.750;11.970;2023-08-17T11:43:01;75334.09;;;-142.11;100.00
14800;BME280;7491;57.750;11.970;2023-08-17T11:45:28;75358.56;;;-142.11;100.00
14800;BME280;7491;57.750;11.970;2023-08-17T11:47:56;75380.97;;;-142.11;100.00
14800;BME280;7491;57.750;11.970;2023-08-17T11:50:24;75366.72;;;-142.11;100.00
14800;BME280;7491;57.750;11.970;2023-08-17T11:52:51;75348.38;;;-142.11;100.00
14800;BME280;7491;57.750;11.970;2023-08-17T11:55:18;75348.38;;;-142.11;100.00
14800;BME280;7491;57.750;11.970;2023-08-17T11:57:45;75319.81;;;-142.11;100.00
14800;BME280;7491;57.750;11.970;2023-08-17T12:00:19;75321.88;;;-142.11;100.00
14800;BME280;7491;57.750;11.970;2023-08-17T12:02:47;75336.13;;;-142.11;100.00
14800;BME280;7491;57.750;11.970;2023-08-17T12:05:19;75342.25;;;-142.11;100.00
14800;BME280;7491;57.750;11.970;2023-08-17T12:07:46;75338.16;;;-142.11;100.00
14800;BME280;7491;57.750;11.970;2023-08-17T12:10:13;75330.03;;;-142.11;100.00
14800;BME280;7491;57.750;11.970;2023-08-17T12:12:39;75315.75;;;-142.11;100.00
14800;BME280;7491;57.750;11.970;2023-08-17T12:15:07;75305.56;;;-142.11;100.00
14800;BME280;7491;57.750;11.970;2023-08-17T12:17:43;75297.41;;;-142.11;100.00
14800;BME280;7491;57.750;11.970;2023-08-17T12:20:15;75295.38;;;-142.11;100.00
14800;BME280;7491;57.750;11.970;2023-08-17T12:22:42;75289.25;;;-142.11;100.00
14800;BME280;7491;57.750;11.970;2023-08-17T12:25:09;75264.81;;;-142.11;100.00
14800;BME280;7491;57.750;11.970;2023-08-17T12:27:36;75268.88;;;-142.11;100.00
14800;BME280;7491;57.750;11.970;2023-08-17T12:30:03;75309.63;;;-142.11;100.00
14800;BME280;7491;57.750;11.970;2023-08-17T12:32:30;75348.38;;;-142.11;100.00
14800;BME280;7491;57.750;11.970;2023-08-17T12:34:58;75334.09;;;-142.11;100.00
14800;BME280;7491;57.750;11.970;2023-08-17T12:37:25;75293.34;;;-142.11;100.00